Time,TemperatureF,DewpointF,PressureIn,WindDirection,WindDirectionDegrees,WindSpeedMPH,WindSpeedGustMPH,Humidity,HourlyPrecipIn,Conditions,Clouds,dailyrainin,SoftwareType,DateUTC
2013-01-12 10:30:00,78.8,69.4,30.23,ESE,112,14.0,14.0,73,0.00,CLR,,0.00,WeatherDisplay:10.37,2013-01-12 15:30:00,
2013-01-12 10:35:00,78.3,69.3,30.17,SSE,158,11.5,11.5,74,0.00,CLR,,0.00,WeatherDisplay:10.37,2013-01-12 15:35:00,
2013-01-12 10:40:00,78.1,69.1,30.17,ESE,112,11.5,11.5,74,0.00,CLR,,0.00,WeatherDisplay:10.37,2013-01-12 15:40:00,
2013-01-12 10:45:00,78.8,69.4,30.17,SSE,158,10.4,10.4,73,0.00,CLR,,0.00,WeatherDisplay:10.37,2013-01-12 15:45:00,
2013-01-12 10:50:00,79.2,69.8,30.16,ESE,112,11.9,11.9,73,0.00,CLR,,0.00,WeatherDisplay:10.37,2013-01-12 15:50:00,
2013-01-12 10:55:00,77.4,68.9,30.16,East,90,16.0,16.0,75,0.00,CLR,,0.00,WeatherDisplay:10.37,2013-01-12 15:55:00,
2013-01-12 11:00:00,77.0,68.9,30.16,ESE,112,10.4,10.4,76,0.00,CLR,,0.00,WeatherDisplay:10.37,2013-01-12 16:00:00,
2013-01-12 11:05:00,77.4,68.9,30.16,ESE,112,12.7,12.7,75,0.00,CLR,,0.00,WeatherDisplay:10.37,2013-01-12 16:05:00,
2013-01-12 11:10:00,78.6,69.6,30.16,SSE,158,11.5,11.5,74,0.00,CLR,,0.00,WeatherDisplay:10.37,2013-01-12 16:10:00,
2013-01-12 11:15:00,78.4,69.0,30.16,SSE,158,11.5,11.5,73,0.00,CLR,,0.00,WeatherDisplay:10.37,2013-01-12 16:15:00,
2013-01-12 11:20:00,78.4,69.4,30.16,SE,135,9.2,9.2,74,0.00,CLR,,0.00,WeatherDisplay:10.37,2013-01-12 16:20:00,
2013-01-12 11:25:00,78.6,68.8,30.16,SE,135,12.7,12.7,72,0.00,CLR,,0.00,WeatherDisplay:10.37,2013-01-12 16:25:00,
2013-01-12 11:30:00,78.1,68.7,30.15,ESE,112,12.7,12.7,73,0.00,CLR,,0.00,WeatherDisplay:10.37,2013-01-12 16:30:00,
2013-01-12 11:35:00,78.1,68.7,30.15,ESE,112,9.2,9.2,73,0.00,CLR,,0.00,WeatherDisplay:10.37,2013-01-12 16:35:00,
2013-01-12 11:40:00,77.7,69.1,30.15,SSE,158,11.5,11.5,75,0.00,CLR,,0.00,WeatherDisplay:10.37,2013-01-12 16:40:00,
2013-01-12 11:45:00,77.4,69.2,30.15,SSE,158,12.7,12.7,76,0.00,CLR,,0.00,WeatherDisplay:10.37,2013-01-12 16:45:00,
2013-01-12 11:50:00,77.2,69.0,30.15,SE,135,11.9,11.9,76,0.00,CLR,,0.00,WeatherDisplay:10.37,2013-01-12 16:50:00,
2013-01-12 11:55:00,77.0,68.9,30.15,ESE,112,13.0,13.0,76,0.00,CLR,,0.00,WeatherDisplay:10.37,2013-01-12 16:55:00,
2013-01-12 12:00:00,77.4,69.2,30.15,ESE,112,10.4,10.4,76,0.00,CLR,,0.00,WeatherDisplay:10.37,2013-01-12 17:00:00,
2013-01-12 12:05:00,77.0,69.2,30.13,SE,135,11.5,11.5,77,0.00,CLR,,0.00,WeatherDisplay:10.37,2013-01-12 17:05:00,
2013-01-12 12:10:00,77.2,69.0,30.13,SSE,158,6.9,7.1,76,0.00,CLR,,0.00,WeatherDisplay:10.37,2013-01-12 17:10:00,
2013-01-12 12:15:00,76.8,68.7,30.12,SE,135,13.8,13.8,76,0.00,CLR,,0.00,WeatherDisplay:10.37,2013-01-12 17:15:00,
2013-01-12 12:20:00,78.4,69.0,30.12,SE,135,11.5,11.5,73,0.00,CLR,,0.00,WeatherDisplay:10.37,2013-01-12 17:20:00,
2013-01-12 12:25:00,77.9,68.5,30.12,ESE,112,14.0,14.0,73,0.00,CLR,,0.00,WeatherDisplay:10.37,2013-01-12 17:25:00,
2013-01-12 12:30:00,77.7,68.7,30.12,ESE,112,8.1,8.4,74,0.00,CLR,,0.00,WeatherDisplay:10.37,2013-01-12 17:30:00,
2013-01-12 12:35:00,78.2,68.8,30.12,SE,141,7.0,0.0,73,0.00,CLR,,0.00,WeatherDisplay:10.37,2013-01-12 17:35:00,
2013-01-12 12:40:00,78.8,68.6,30.12,SE,139,10.0,0.0,71,0.00,CLR,,0.00,WeatherDisplay:10.37,2013-01-12 17:40:00,
2013-01-12 12:45:00,78.5,68.3,30.12,ESE,122,8.0,0.0,71,0.00,CLR,,0.00,WeatherDisplay:10.37,2013-01-12 17:45:00,
2013-01-12 12:50:00,78.4,68.2,30.12,ESE,123,8.0,0.0,71,0.00,CLR,,0.00,WeatherDisplay:10.37,2013-01-12 17:50:00,
2013-01-12 12:55:00,77.5,68.2,30.12,ESE,119,6.0,0.0,73,0.00,CLR,,0.00,WeatherDisplay:10.37,2013-01-12 17:55:00,
2013-01-12 13:00:00,78.2,68.8,30.12,SE,127,7.0,0.0,73,0.00,CLR,,0.00,WeatherDisplay:10.37,2013-01-12 18:00:00,
2013-01-12 13:05:00,77.5,68.2,30.12,SE,130,9.0,0.0,73,0.00,CLR,,0.00,WeatherDisplay:10.37,2013-01-12 18:05:00,
2013-01-12 13:10:00,78.0,68.2,30.12,SE,137,7.0,0.0,72,0.00,CLR,,0.00,WeatherDisplay:10.37,2013-01-12 18:10:00,
2013-01-12 13:15:00,79.0,68.3,30.11,SE,136,7.0,0.0,70,0.00,CLR,,0.00,WeatherDisplay:10.37,2013-01-12 18:15:00,
2013-01-12 13:20:00,78.4,69.1,30.11,ESE,122,8.0,0.0,73,0.00,CLR,,0.00,WeatherDisplay:10.37,2013-01-12 18:20:00,
2013-01-12 13:25:00,78.6,68.4,30.11,SE,128,7.0,0.0,71,0.00,CLR,,0.00,WeatherDisplay:10.37,2013-01-12 18:25:00,
2013-01-12 13:30:00,79.1,68.0,30.11,ESE,122,10.0,0.0,69,0.00,CLR,,0.00,WeatherDisplay:10.37,2013-01-12 18:30:00,
2013-01-12 13:35:00,78.8,68.6,30.11,SE,124,9.0,0.0,71,0.00,CLR,,0.00,WeatherDisplay:10.37,2013-01-12 18:35:00,
2013-01-12 13:40:00,79.3,68.7,30.11,ESE,108,9.0,0.0,70,0.00,CLR,,0.00,WeatherDisplay:10.37,2013-01-12 18:40:00,
2013-01-12 13:45:00,78.2,68.4,30.11,ESE,115,10.0,0.0,72,0.00,CLR,,0.00,WeatherDisplay:10.37,2013-01-12 18:45:00,
2013-01-12 13:50:00,79.1,68.9,30.11,SE,127,8.0,0.0,71,0.00,CLR,,0.00,WeatherDisplay:10.37,2013-01-12 18:50:00,
2013-01-12 13:55:00,78.8,68.6,30.10,SE,125,8.0,0.0,71,0.00,CLR,,0.00,WeatherDisplay:10.37,2013-01-12 18:55:00,
2013-01-12 14:00:00,78.8,69.0,30.10,SE,134,7.0,0.0,72,0.00,CLR,,0.00,WeatherDisplay:10.37,2013-01-12 19:00:00,
2013-01-12 14:05:00,80.6,69.5,30.10,SE,132,9.0,0.0,69,0.00,CLR,,0.00,WeatherDisplay:10.37,2013-01-12 19:05:00,
2013-01-12 14:10:00,80.3,69.2,30.10,ESE,117,10.0,0.0,69,0.00,CLR,,0.00,WeatherDisplay:10.37,2013-01-12 19:10:00,
2013-01-12 14:15:00,78.3,69.0,30.09,SE,130,7.0,0.0,73,0.00,CLR,,0.00,WeatherDisplay:10.37,2013-01-12 19:15:00,
2013-01-12 14:20:00,78.8,69.0,30.09,SSE,148,6.0,0.0,72,0.00,CLR,,0.00,WeatherDisplay:10.37,2013-01-12 19:20:00,
2013-01-12 14:25:00,78.7,68.5,30.09,SE,139,12.0,0.0,71,0.00,CLR,,0.00,WeatherDisplay:10.37,2013-01-12 19:25:00,
2013-01-12 14:30:00,78.2,68.4,30.10,SE,130,9.0,0.0,72,0.00,CLR,,0.00,WeatherDisplay:10.37,2013-01-12 19:30:00,
2013-01-12 14:35:00,78.5,68.3,30.10,SE,133,9.0,0.0,71,0.00,CLR,,0.00,WeatherDisplay:10.37,2013-01-12 19:35:00,
2013-01-12 14:40:00,79.4,68.8,30.09,SE,128,6.0,0.0,70,0.00,CLR,,0.00,WeatherDisplay:10.37,2013-01-12 19:40:00,
2013-01-12 14:45:00,78.9,69.1,30.09,ESE,117,8.0,0.0,72,0.00,CLR,,0.00,WeatherDisplay:10.37,2013-01-12 19:45:00,
2013-01-12 14:50:00,78.0,68.3,30.09,ESE,122,8.0,0.0,72,0.00,CLR,,0.00,WeatherDisplay:10.37,2013-01-12 19:50:00,
2013-01-12 14:55:00,78.6,68.8,30.09,ESE,122,9.0,0.0,72,0.00,CLR,,0.00,WeatherDisplay:10.37,2013-01-12 19:55:00,
2013-01-12 15:00:00,79.2,69.4,30.09,ESE,123,6.0,0.0,72,0.00,CLR,,0.00,WeatherDisplay:10.37,2013-01-12 20:00:00,
2013-01-12 15:05:00,78.8,69.0,30.09,East,90,10.4,10.4,72,0.00,CLR,,0.00,WeatherDisplay:10.37,2013-01-12 20:05:00,
2013-01-12 15:10:00,77.7,68.4,30.09,ESE,112,10.4,10.4,73,0.00,CLR,,0.00,WeatherDisplay:10.37,2013-01-12 20:10:00,
2013-01-12 15:15:00,77.9,68.5,30.09,ENE,68,10.9,10.9,73,0.00,CLR,,0.00,WeatherDisplay:10.37,2013-01-12 20:15:00,
2013-01-12 15:20:00,77.7,68.4,30.09,ESE,112,9.2,9.2,73,0.00,CLR,,0.00,WeatherDisplay:10.37,2013-01-12 20:20:00,
2013-01-12 15:25:00,77.7,68.4,30.09,ESE,112,6.9,7.6,73,0.00,CLR,,0.00,WeatherDisplay:10.37,2013-01-12 20:25:00,
2013-01-12 15:30:00,77.4,68.1,30.10,SSE,158,10.4,10.4,73,0.00,CLR,,0.00,WeatherDisplay:10.37,2013-01-12 20:30:00,
2013-01-12 15:35:00,77.4,67.7,30.10,South,180,6.9,6.9,72,0.00,CLR,,0.00,WeatherDisplay:10.37,2013-01-12 20:35:00,
2013-01-12 15:40:00,77.0,67.7,30.09,ESE,112,8.1,8.1,73,0.00,CLR,,0.00,WeatherDisplay:10.37,2013-01-12 20:40:00,
2013-01-12 15:45:00,77.5,68.2,30.09,SSE,158,8.1,8.1,73,0.00,CLR,,0.00,WeatherDisplay:10.37,2013-01-12 20:45:00,
2013-01-12 15:50:00,77.9,67.7,30.09,SE,130,6.0,0.0,71,0.00,CLR,,0.00,WeatherDisplay:10.37,2013-01-12 20:50:00,
2013-01-12 15:55:00,77.5,67.8,30.10,SE,132,6.0,0.0,72,0.00,CLR,,0.00,WeatherDisplay:10.37,2013-01-12 20:55:00,
2013-01-12 16:00:00,77.3,67.5,30.10,SE,127,7.0,0.0,72,0.00,CLR,,0.00,WeatherDisplay:10.37,2013-01-12 21:00:00,
2013-01-12 16:05:00,77.1,67.0,30.09,SE,129,9.0,0.0,71,0.00,CLR,,0.00,WeatherDisplay:10.37,2013-01-12 21:05:00,
2013-01-12 16:10:00,77.1,67.4,30.09,SE,126,8.0,0.0,72,0.00,CLR,,0.00,WeatherDisplay:10.37,2013-01-12 21:10:00,
2013-01-12 16:15:00,77.0,67.3,30.10,SE,136,6.0,0.0,72,0.00,CLR,,0.00,WeatherDisplay:10.37,2013-01-12 21:15:00,
2013-01-12 16:20:00,77.1,67.8,30.10,SE,126,6.0,0.0,73,0.00,CLR,,0.00,WeatherDisplay:10.37,2013-01-12 21:20:00,
2013-01-12 16:25:00,77.2,67.5,30.10,SE,132,5.0,0.0,72,0.00,CLR,,0.00,WeatherDisplay:10.37,2013-01-12 21:25:00,
2013-01-12 16:30:00,77.2,67.5,30.10,SE,134,7.0,0.0,72,0.00,CLR,,0.00,WeatherDisplay:10.37,2013-01-12 21:30:00,
2013-01-12 16:35:00,76.6,67.3,30.10,SE,127,8.0,0.0,73,0.00,CLR,,0.00,WeatherDisplay:10.37,2013-01-12 21:35:00,
2013-01-12 16:40:00,76.6,67.3,30.10,SE,133,7.0,0.0,73,0.00,CLR,,0.00,WeatherDisplay:10.37,2013-01-12 21:40:00,
2013-01-12 16:45:00,76.6,66.9,30.10,SE,138,6.0,0.0,72,0.00,CLR,,0.00,WeatherDisplay:10.37,2013-01-12 21:45:00,
2013-01-12 16:50:00,76.5,67.2,30.10,SE,142,3.0,0.0,73,0.00,CLR,,0.00,WeatherDisplay:10.37,2013-01-12 21:50:00,
2013-01-12 16:55:00,76.3,67.0,30.10,SE,136,7.0,0.0,73,0.00,CLR,,0.00,WeatherDisplay:10.37,2013-01-12 21:55:00,
2013-01-12 17:00:00,76.3,67.0,30.10,SE,129,6.0,0.0,73,0.00,CLR,,0.00,WeatherDisplay:10.37,2013-01-12 22:00:00,
2013-01-12 17:05:00,76.3,66.6,30.10,ESE,116,5.0,0.0,72,0.00,CLR,,0.00,WeatherDisplay:10.37,2013-01-12 22:05:00,
2013-01-12 17:10:00,76.1,66.4,30.10,ESE,123,7.0,0.0,72,0.00,CLR,,0.00,WeatherDisplay:10.37,2013-01-12 22:10:00,
2013-01-12 17:15:00,75.9,67.0,30.10,SE,134,6.0,0.0,74,0.00,CLR,,0.00,WeatherDisplay:10.37,2013-01-12 22:15:00,
2013-01-12 17:20:00,75.7,66.4,30.10,SE,135,5.0,0.0,73,0.00,CLR,,0.00,WeatherDisplay:10.37,2013-01-12 22:20:00,
2013-01-12 17:25:00,75.6,66.3,30.10,ESE,120,5.0,0.0,73,0.00,CLR,,0.00,WeatherDisplay:10.37,2013-01-12 22:25:00,
2013-01-12 17:30:00,75.4,66.5,30.10,SE,128,7.0,0.0,74,0.00,CLR,,0.00,WeatherDisplay:10.37,2013-01-12 22:30:00,
2013-01-12 17:35:00,75.4,66.5,30.10,SE,136,6.0,0.0,74,0.00,CLR,,0.00,WeatherDisplay:10.37,2013-01-12 22:35:00,
2013-01-12 17:40:00,75.0,66.1,30.10,SE,135,6.9,6.9,74,0.00,CLR,,0.00,WeatherDisplay:10.37,2013-01-12 22:40:00,
2013-01-12 17:45:00,75.0,66.1,30.10,ESE,112,6.9,6.9,74,0.00,CLR,,0.00,WeatherDisplay:10.37,2013-01-12 22:45:00,
2013-01-12 17:50:00,74.8,66.0,30.11,ESE,112,5.8,5.8,74,0.00,CLR,,0.00,WeatherDisplay:10.37,2013-01-12 22:50:00,
2013-01-12 17:55:00,74.7,65.9,30.11,ESE,112,4.7,4.7,74,0.00,CLR,,0.00,WeatherDisplay:10.37,2013-01-12 22:55:00,
2013-01-12 18:00:00,74.5,65.7,30.11,ESE,112,3.7,3.7,74,0.00,CLR,,0.00,WeatherDisplay:10.37,2013-01-12 23:00:00,
2013-01-12 18:05:00,74.5,66.1,30.11,ESE,112,7.8,7.8,75,0.00,CLR,,0.00,WeatherDisplay:10.37,2013-01-12 23:05:00,
2013-01-12 18:10:00,74.7,65.9,30.11,ESE,112,6.9,6.9,74,0.00,CLR,,0.00,WeatherDisplay:10.37,2013-01-12 23:10:00,
2013-01-12 18:15:00,74.5,65.7,30.11,SE,135,6.9,6.9,74,0.00,CLR,,0.00,WeatherDisplay:10.37,2013-01-12 23:15:00,
2013-01-12 18:20:00,74.3,65.5,30.11,SE,135,4.7,4.7,74,0.00,CLR,,0.00,WeatherDisplay:10.37,2013-01-12 23:20:00,
2013-01-12 18:25:00,74.3,65.9,30.11,ESE,112,4.6,4.6,75,0.00,CLR,,0.00,WeatherDisplay:10.37,2013-01-12 23:25:00,
2013-01-12 18:30:00,74.1,65.7,30.11,SSE,158,5.8,5.8,75,0.00,CLR,,0.00,WeatherDisplay:10.37,2013-01-12 23:30:00,
2013-01-12 18:35:00,74.1,65.7,30.11,SE,135,6.9,6.9,75,0.00,CLR,,0.00,WeatherDisplay:10.37,2013-01-12 23:35:00,
2013-01-12 18:41:00,74.1,65.7,30.11,ESE,112,4.7,4.7,75,0.00,CLR,,0.00,WeatherDisplay:10.37,2013-01-12 23:41:00,
2013-01-12 18:46:00,73.9,65.9,30.11,SE,135,3.2,3.2,76,0.00,CLR,,0.00,WeatherDisplay:10.37,2013-01-12 23:46:00,
2013-01-12 18:51:00,73.8,66.1,30.12,SE,135,6.3,6.3,77,0.00,CLR,,0.00,WeatherDisplay:10.37,2013-01-12 23:51:00,
2013-01-12 18:56:00,73.9,65.9,30.12,SE,135,5.8,5.8,76,0.00,CLR,,0.00,WeatherDisplay:10.37,2013-01-12 23:56:00,
2013-01-12 19:01:00,73.9,65.9,30.12,SE,135,6.9,6.9,76,0.00,CLR,,0.00,WeatherDisplay:10.37,2013-01-13 00:01:00,
2013-01-12 19:06:00,73.9,65.9,30.13,ESE,112,6.9,6.9,76,0.00,CLR,,0.00,WeatherDisplay:10.37,2013-01-13 00:06:00,
2013-01-12 19:11:00,73.8,65.8,30.13,SE,135,5.8,5.8,76,0.00,CLR,,0.00,WeatherDisplay:10.37,2013-01-13 00:11:00,
2013-01-12 19:16:00,73.8,65.8,30.13,ESE,112,4.6,4.6,76,0.00,CLR,,0.00,WeatherDisplay:10.37,2013-01-13 00:16:00,
2013-01-12 19:21:00,73.8,66.1,30.13,SE,135,8.3,8.3,77,0.00,CLR,,0.00,WeatherDisplay:10.37,2013-01-13 00:21:00,
2013-01-12 19:26:00,73.8,66.1,30.13,SSE,158,5.8,5.8,77,0.00,CLR,,0.00,WeatherDisplay:10.37,2013-01-13 00:26:00,
2013-01-12 19:31:00,73.6,66.3,30.13,East,90,4.6,4.6,78,0.00,CLR,,0.00,WeatherDisplay:10.37,2013-01-13 00:31:00,
2013-01-12 19:36:00,73.4,66.1,30.13,SE,135,4.6,4.6,78,0.00,CLR,,0.00,WeatherDisplay:10.37,2013-01-13 00:36:00,
2013-01-12 19:41:00,73.4,65.7,30.13,South,180,5.8,5.8,77,0.00,CLR,,0.00,WeatherDisplay:10.37,2013-01-13 00:41:00,
2013-01-12 19:46:00,73.4,65.7,30.13,ESE,112,4.7,4.7,77,0.00,CLR,,0.00,WeatherDisplay:10.37,2013-01-13 00:46:00,
2013-01-12 19:51:00,73.2,65.9,30.13,ENE,68,4.6,4.6,78,0.00,CLR,,0.00,WeatherDisplay:10.37,2013-01-13 00:51:00,
2013-01-12 19:56:00,73.0,65.7,30.13,SSE,158,3.5,3.5,78,0.00,CLR,,0.00,WeatherDisplay:10.37,2013-01-13 00:56:00,
2013-01-12 20:01:00,73.0,65.7,30.13,ESE,112,4.6,4.6,78,0.00,CLR,,0.00,WeatherDisplay:10.37,2013-01-13 01:01:00,
2013-01-12 20:06:00,73.0,66.1,30.13,ESE,112,4.6,4.6,79,0.00,CLR,,0.00,WeatherDisplay:10.37,2013-01-13 01:06:00,
2013-01-12 20:11:00,73.2,66.3,30.13,East,90,5.8,5.8,79,0.00,CLR,,0.00,WeatherDisplay:10.37,2013-01-13 01:11:00,
2013-01-12 20:16:00,73.2,65.9,30.13,ESE,112,3.7,3.7,78,0.00,CLR,,0.00,WeatherDisplay:10.37,2013-01-13 01:16:00,
2013-01-12 20:21:00,73.2,65.9,30.13,ESE,112,5.8,5.8,78,0.00,CLR,,0.00,WeatherDisplay:10.37,2013-01-13 01:21:00,
2013-01-12 20:26:00,73.2,65.9,30.13,East,90,4.7,4.7,78,0.00,CLR,,0.00,WeatherDisplay:10.37,2013-01-13 01:26:00,
2013-01-12 20:31:00,73.2,65.9,30.13,ESE,112,5.8,5.8,78,0.00,CLR,,0.00,WeatherDisplay:10.37,2013-01-13 01:31:00,
2013-01-12 20:36:00,72.9,65.6,30.13,ESE,112,2.7,2.7,78,0.00,CLR,,0.00,WeatherDisplay:10.37,2013-01-13 01:36:00,
2013-01-12 20:41:00,72.7,65.8,30.14,ENE,68,3.5,3.5,79,0.00,CLR,,0.00,WeatherDisplay:10.37,2013-01-13 01:41:00,
2013-01-12 20:46:00,72.7,65.8,30.14,ESE,112,4.6,4.6,79,0.00,CLR,,0.00,WeatherDisplay:10.37,2013-01-13 01:46:00,
2013-01-12 20:51:00,72.5,65.6,30.13,SE,135,6.3,6.3,79,0.00,CLR,,0.00,WeatherDisplay:10.37,2013-01-13 01:51:00,
2013-01-12 20:56:00,73.0,65.7,30.13,ESE,112,5.8,5.8,78,0.00,CLR,,0.00,WeatherDisplay:10.37,2013-01-13 01:56:00,
2013-01-12 21:01:00,72.9,65.6,30.13,ESE,112,5.8,5.8,78,0.00,CLR,,0.00,WeatherDisplay:10.37,2013-01-13 02:01:00,
2013-01-12 21:06:00,72.9,65.6,30.13,ESE,112,3.7,3.7,78,0.00,CLR,,0.00,WeatherDisplay:10.37,2013-01-13 02:06:00,
2013-01-12 21:11:00,72.7,65.4,30.13,ESE,112,4.6,4.6,78,0.00,CLR,,0.00,WeatherDisplay:10.37,2013-01-13 02:11:00,
2013-01-12 21:16:00,72.7,65.4,30.13,ESE,112,3.5,3.5,78,0.00,CLR,,0.00,WeatherDisplay:10.37,2013-01-13 02:16:00,
2013-01-12 21:21:00,72.5,65.2,30.13,ESE,112,5.8,5.8,78,0.00,CLR,,0.00,WeatherDisplay:10.37,2013-01-13 02:21:00,
2013-01-12 21:26:00,72.5,65.2,30.12,ESE,112,4.7,4.7,78,0.00,CLR,,0.00,WeatherDisplay:10.37,2013-01-13 02:26:00,
2013-01-12 21:31:00,72.5,65.2,30.12,ESE,112,5.8,5.8,78,0.00,CLR,,0.00,WeatherDisplay:10.37,2013-01-13 02:31:00,
2013-01-12 21:36:00,73.0,65.4,30.12,ESE,112,5.8,5.8,77,0.00,CLR,,0.00,WeatherDisplay:10.37,2013-01-13 02:36:00,
2013-01-12 21:41:00,73.0,65.4,30.12,SE,135,4.6,4.6,77,0.00,CLR,,0.00,WeatherDisplay:10.37,2013-01-13 02:41:00,
2013-01-12 21:46:00,72.9,65.3,30.12,ESE,112,4.6,4.6,77,0.00,CLR,,0.00,WeatherDisplay:10.37,2013-01-13 02:46:00,
2013-01-12 21:51:00,72.9,65.3,30.12,ESE,112,5.8,5.8,77,0.00,CLR,,0.00,WeatherDisplay:10.37,2013-01-13 02:51:00,
2013-01-12 21:56:00,72.9,65.6,30.12,SSE,158,4.6,4.6,78,0.00,CLR,,0.00,WeatherDisplay:10.37,2013-01-13 02:56:00,
2013-01-12 22:01:00,72.7,65.4,30.12,East,90,4.7,4.7,78,0.00,CLR,,0.00,WeatherDisplay:10.37,2013-01-13 03:01:00,
2013-01-12 22:06:00,72.7,65.4,30.12,East,90,7.3,7.3,78,0.00,CLR,,0.00,WeatherDisplay:10.37,2013-01-13 03:06:00,
2013-01-12 22:11:00,72.9,65.6,30.12,ESE,112,4.6,4.6,78,0.00,CLR,,0.00,WeatherDisplay:10.37,2013-01-13 03:11:00,
2013-01-12 22:16:00,72.9,65.6,30.12,ESE,112,3.7,3.7,78,0.00,CLR,,0.00,WeatherDisplay:10.37,2013-01-13 03:16:00,
2013-01-12 22:21:00,72.9,65.6,30.12,ESE,112,3.7,3.7,78,0.00,CLR,,0.00,WeatherDisplay:10.37,2013-01-13 03:21:00,
2013-01-12 22:26:00,72.9,65.6,30.12,ESE,112,3.7,3.7,78,0.00,CLR,,0.00,WeatherDisplay:10.37,2013-01-13 03:26:00,
2013-01-12 22:31:00,72.9,65.6,30.12,ESE,112,3.7,3.7,78,0.00,CLR,,0.00,WeatherDisplay:10.37,2013-01-13 03:31:00,
2013-01-12 22:36:00,72.9,65.6,30.12,ESE,112,3.7,3.7,78,0.00,CLR,,0.00,WeatherDisplay:10.37,2013-01-13 03:36:00,
2013-01-12 22:41:00,72.9,65.6,30.12,ESE,112,3.7,3.7,78,0.00,CLR,,0.00,WeatherDisplay:10.37,2013-01-13 03:41:00,
2013-01-12 22:46:00,72.9,65.6,30.12,ESE,112,3.7,3.7,78,0.00,CLR,,0.00,WeatherDisplay:10.37,2013-01-13 03:46:00,
2013-01-12 22:51:00,72.9,65.6,30.12,ESE,112,3.7,3.7,78,0.00,CLR,,0.00,WeatherDisplay:10.37,2013-01-13 03:51:00,
2013-01-12 22:56:00,72.9,65.6,30.12,ESE,112,3.7,3.7,78,0.00,CLR,,0.00,WeatherDisplay:10.37,2013-01-13 03:56:00,
2013-01-12 23:01:00,72.9,65.6,30.12,ESE,112,3.7,3.7,78,0.00,CLR,,0.00,WeatherDisplay:10.37,2013-01-13 04:01:00,
2013-01-12 23:06:00,72.9,65.6,30.12,ESE,112,3.7,3.7,78,0.00,CLR,,0.00,WeatherDisplay:10.37,2013-01-13 04:06:00,
2013-01-12 23:11:00,72.9,65.6,30.12,ESE,112,3.7,3.7,78,0.00,CLR,,0.00,WeatherDisplay:10.37,2013-01-13 04:11:00,
2013-01-12 23:16:00,72.9,65.6,30.12,ESE,112,3.7,3.7,78,0.00,CLR,,0.00,WeatherDisplay:10.37,2013-01-13 04:16:00,
2013-01-12 23:21:00,72.9,65.6,30.12,ESE,112,3.7,3.7,78,0.00,CLR,,0.00,WeatherDisplay:10.37,2013-01-13 04:21:00,
2013-01-12 23:26:00,72.9,65.6,30.12,ESE,112,3.7,3.7,78,0.00,CLR,,0.00,WeatherDisplay:10.37,2013-01-13 04:26:00,
2013-01-12 23:31:00,73.6,66.7,30.11,ENE,68,6.9,6.9,79,0.00,CLR,,0.00,WeatherDisplay:10.37,2013-01-13 04:31:00,
2013-01-12 23:36:00,73.8,66.1,30.11,ESE,112,10.4,10.4,77,0.00,CLR,,0.00,WeatherDisplay:10.37,2013-01-13 04:36:00,
2013-01-12 23:41:00,73.8,66.1,30.11,SSE,158,8.1,8.1,77,0.00,CLR,,0.00,WeatherDisplay:10.37,2013-01-13 04:41:00,
2013-01-12 23:46:00,73.8,65.8,30.11,East,90,8.1,8.1,76,0.00,CLR,,0.00,WeatherDisplay:10.37,2013-01-13 04:46:00,
2013-01-12 23:51:00,73.9,64.7,30.10,ESE,112,6.9,6.9,73,0.00,CLR,,0.00,WeatherDisplay:10.37,2013-01-13 04:51:00,
2013-01-12 23:56:00,73.9,63.9,30.10,ESE,112,9.2,9.2,71,0.00,CLR,,0.00,WeatherDisplay:10.37,2013-01-13 04:56:00,